sensor_id;sensor_type;location;lat;lon;timestamp;temperature;humidity
46652;DHT22;32377;52.182;5.398;2022-10-31T00:00:49;12.40;99.90
46652;DHT22;32377;52.182;5.398;2022-10-31T00:03:16;12.40;99.90
46652;DHT22;32377;52.182;5.398;2022-10-31T00:05:48;12.50;99.90
46652;DHT22;32377;52.182;5.398;2022-10-31T00:08:15;12.50;99.90
46652;DHT22;32377;52.182;5.398;2022-10-31T00:10:42;12.50;99.90
46652;DHT22;32377;52.182;5.398;2022-10-31T00:13:08;12.50;99.90
46652;DHT22;32377;52.182;5.398;2022-10-31T00:15:36;12.50;99.90
46652;DHT22;32377;52.182;5.398;2022-10-31T00:18:02;12.60;99.90
46652;DHT22;32377;52.182;5.398;2022-10-31T00:20:29;12.60;99.90
46652;DHT22;32377;52.182;5.398;2022-10-31T00:23:01;12.60;99.90
46652;DHT22;32377;52.182;5.398;2022-10-31T00:25:28;12.60;99.90
46652;DHT22;32377;52.182;5.398;2022-10-31T00:27:54;12.60;99.90
46652;DHT22;32377;52.182;5.398;2022-10-31T00:30:20;12.60;99.90
46652;DHT22;32377;52.182;5.398;2022-10-31T00:32:45;12.70;99.90
46652;DHT22;32377;52.182;5.398;2022-10-31T00:35:11;12.70;99.90
46652;DHT22;32377;52.182;5.398;2022-10-31T00:37:36;12.60;99.90
46652;DHT22;32377;52.182;5.398;2022-10-31T00:40:02;12.60;99.90
46652;DHT22;32377;52.182;5.398;2022-10-31T00:42:28;12.60;99.90
46652;DHT22;32377;52.182;5.398;2022-10-31T00:44:53;12.60;99.90
46652;DHT22;32377;52.182;5.398;2022-10-31T00:47:19;12.60;99.90
46652;DHT22;32377;52.182;5.398;2022-10-31T00:49:44;12.60;99.90
46652;DHT22;32377;52.182;5.398;2022-10-31T00:52:10;12.60;99.90
46652;DHT22;32377;52.182;5.398;2022-10-31T00:54:35;12.60;99.90
46652;DHT22;32377;52.182;5.398;2022-10-31T00:57:01;12.50;99.90
46652;DHT22;32377;52.182;5.398;2022-10-31T00:59:27;12.50;99.90
46652;DHT22;32377;52.182;5.398;2022-10-31T01:01:52;12.50;99.90
46652;DHT22;32377;52.182;5.398;2022-10-31T01:04:18;12.50;99.90
46652;DHT22;32377;52.182;5.398;2022-10-31T01:06:43;12.50;99.90
46652;DHT22;32377;52.182;5.398;2022-10-31T01:09:09;12.50;99.90
46652;DHT22;32377;52.182;5.398;2022-10-31T01:11:34;12.40;99.90
46652;DHT22;32377;52.182;5.398;2022-10-31T01:14:00;12.40;99.90
46652;DHT22;32377;52.182;5.398;2022-10-31T01:16:27;12.30;99.90
46652;DHT22;32377;52.182;5.398;2022-10-31T01:18:52;12.20;99.90
46652;DHT22;32377;52.182;5.398;2022-10-31T01:21:20;12.20;99.90
46652;DHT22;32377;52.182;5.398;2022-10-31T01:23:46;12.10;99.90
46652;DHT22;32377;52.182;5.398;2022-10-31T01:26:17;12.10;99.90
46652;DHT22;32377;52.182;5.398;2022-10-31T01:28:49;12.10;99.90
46652;DHT22;32377;52.182;5.398;2022-10-31T01:31:17;12.00;99.90
46652;DHT22;32377;52.182;5.398;2022-10-31T01:33:43;12.10;99.90
46652;DHT22;32377;52.182;5.398;2022-10-31T01:38:39;12.10;99.90
46652;DHT22;32377;52.182;5.398;2022-10-31T01:41:04;12.00;99.90
46652;DHT22;32377;52.182;5.398;2022-10-31T01:44:01;11.90;99.90
46652;DHT22;32377;52.182;5.398;2022-10-31T01:46:31;11.90;99.90
46652;DHT22;32377;52.182;5.398;2022-10-31T01:49:01;11.90;99.90
46652;DHT22;32377;52.182;5.398;2022-10-31T01:51:32;11.80;99.90
46652;DHT22;32377;52.182;5.398;2022-10-31T01:54:02;11.80;99.90
46652;DHT22;32377;52.182;5.398;2022-10-31T01:56:29;11.70;99.90
46652;DHT22;32377;52.182;5.398;2022-10-31T01:58:57;11.60;99.90
46652;DHT22;32377;52.182;5.398;2022-10-31T02:01:25;11.50;99.90
46652;DHT22;32377;52.182;5.398;2022-10-31T02:03:51;11.50;99.90
46652;DHT22;32377;52.182;5.398;2022-10-31T02:06:45;11.40;99.90
46652;DHT22;32377;52.182;5.398;2022-10-31T02:09:12;11.30;99.90
46652;DHT22;32377;52.182;5.398;2022-10-31T02:11:40;11.30;99.90
46652;DHT22;32377;52.182;5.398;2022-10-31T02:14:06;11.30;99.90
46652;DHT22;32377;52.182;5.398;2022-10-31T02:16:31;11.30;99.90
46652;DHT22;32377;52.182;5.398;2022-10-31T02:18:57;11.20;99.90
46652;DHT22;32377;52.182;5.398;2022-10-31T02:21:37;11.20;99.90
46652;DHT22;32377;52.182;5.398;2022-10-31T02:27:02;11.10;99.90
46652;DHT22;32377;52.182;5.398;2022-10-31T02:41:05;10.80;99.90
46652;DHT22;32377;52.182;5.398;2022-10-31T02:43:43;10.80;99.90
46652;DHT22;32377;52.182;5.398;2022-10-31T02:46:19;10.80;99.90
46652;DHT22;32377;52.182;5.398;2022-10-31T02:48:49;10.80;99.90
46652;DHT22;32377;52.182;5.398;2022-10-31T02:51:18;10.80;99.90
46652;DHT22;32377;52.182;5.398;2022-10-31T02:53:44;10.80;99.90
46652;DHT22;32377;52.182;5.398;2022-10-31T02:56:16;10.80;99.90
46652;DHT22;32377;52.182;5.398;2022-10-31T02:58:46;10.80;99.90
46652;DHT22;32377;52.182;5.398;2022-10-31T03:01:39;10.80;99.90
46652;DHT22;32377;52.182;5.398;2022-10-31T03:07:42;10.80;99.90
46652;DHT22;32377;52.182;5.398;2022-10-31T03:13:08;10.70;99.90
46652;DHT22;32377;52.182;5.398;2022-10-31T03:15:37;10.70;99.90
46652;DHT22;32377;52.182;5.398;2022-10-31T03:20:58;10.70;99.90
46652;DHT22;32377;52.182;5.398;2022-10-31T03:23:27;10.60;99.90
46652;DHT22;32377;52.182;5.398;2022-10-31T03:25:54;10.60;99.90
46652;DHT22;32377;52.182;5.398;2022-10-31T03:28:26;10.60;99.90
46652;DHT22;32377;52.182;5.398;2022-10-31T03:30:53;10.60;99.90
46652;DHT22;32377;52.182;5.398;2022-10-31T03:33:23;10.60;99.90
46652;DHT22;32377;52.182;5.398;2022-10-31T03:35:52;10.60;99.90
46652;DHT22;32377;52.182;5.398;2022-10-31T03:38:20;10.60;99.90
46652;DHT22;32377;52.182;5.398;2022-10-31T03:40:48;10.60;99.90
46652;DHT22;32377;52.182;5.398;2022-10-31T03:43:21;10.50;99.90
46652;DHT22;32377;52.182;5.398;2022-10-31T03:45:47;10.50;99.90
46652;DHT22;32377;52.182;5.398;2022-10-31T03:48:14;10.50;99.90
46652;DHT22;32377;52.182;5.398;2022-10-31T03:51:11;10.50;99.90
46652;DHT22;32377;52.182;5.398;2022-10-31T03:56:47;10.50;99.90
46652;DHT22;32377;52.182;5.398;2022-10-31T03:59:24;10.50;99.90
46652;DHT22;32377;52.182;5.398;2022-10-31T04:01:55;10.50;99.90
46652;DHT22;32377;52.182;5.398;2022-10-31T04:04:22;10.50;99.90
46652;DHT22;32377;52.182;5.398;2022-10-31T04:06:50;10.50;99.90
46652;DHT22;32377;52.182;5.398;2022-10-31T04:09:17;10.40;99.90
46652;DHT22;32377;52.182;5.398;2022-10-31T04:11:50;10.40;99.90
46652;DHT22;32377;52.182;5.398;2022-10-31T04:14:16;10.40;99.90
46652;DHT22;32377;52.182;5.398;2022-10-31T04:16:44;10.40;99.90
46652;DHT22;32377;52.182;5.398;2022-10-31T04:19:12;10.30;99.90
46652;DHT22;32377;52.182;5.398;2022-10-31T04:21:38;10.20;99.90
46652;DHT22;32377;52.182;5.398;2022-10-31T04:24:04;10.20;99.90
46652;DHT22;32377;52.182;5.398;2022-10-31T04:26:29;10.20;99.90
46652;DHT22;32377;52.182;5.398;2022-10-31T04:28:55;10.10;99.90
46652;DHT22;32377;52.182;5.398;2022-10-31T04:31:20;10.10;99.90
46652;DHT22;32377;52.182;5.398;2022-10-31T04:33:46;10.10;99.90
46652;DHT22;32377;52.182;5.398;2022-10-31T04:36:12;10.00;99.90
46652;DHT22;32377;52.182;5.398;2022-10-31T04:38:37;10.10;99.90
46652;DHT22;32377;52.182;5.398;2022-10-31T04:41:03;10.10;99.90
46652;DHT22;32377;52.182;5.398;2022-10-31T04:43:29;10.10;99.90
46652;DHT22;32377;52.182;5.398;2022-10-31T04:45:54;10.20;99.90
46652;DHT22;32377;52.182;5.398;2022-10-31T04:48:20;10.20;99.90
46652;DHT22;32377;52.182;5.398;2022-10-31T04:50:45;10.20;99.90
46652;DHT22;32377;52.182;5.398;2022-10-31T04:53:11;10.20;99.90
46652;DHT22;32377;52.182;5.398;2022-10-31T04:55:36;10.20;99.90
46652;DHT22;32377;52.182;5.398;2022-10-31T04:58:03;10.10;99.90
46652;DHT22;32377;52.182;5.398;2022-10-31T05:00:29;10.10;99.90
46652;DHT22;32377;52.182;5.398;2022-10-31T05:02:56;10.10;99.90
46652;DHT22;32377;52.182;5.398;2022-10-31T05:05:27;10.10;99.90
46652;DHT22;32377;52.182;5.398;2022-10-31T05:07:53;10.10;99.90
46652;DHT22;32377;52.182;5.398;2022-10-31T05:10:22;10.00;99.90
46652;DHT22;32377;52.182;5.398;2022-10-31T05:12:52;10.00;99.90
46652;DHT22;32377;52.182;5.398;2022-10-31T05:15:20;10.00;99.90
46652;DHT22;32377;52.182;5.398;2022-10-31T05:17:46;10.00;99.90
46652;DHT22;32377;52.182;5.398;2022-10-31T05:20:13;10.00;99.90
46652;DHT22;32377;52.182;5.398;2022-10-31T05:22:43;10.00;99.90
46652;DHT22;32377;52.182;5.398;2022-10-31T05:25:09;9.90;99.90
46652;DHT22;32377;52.182;5.398;2022-10-31T05:27:35;9.90;99.90
46652;DHT22;32377;52.182;5.398;2022-10-31T05:30:03;9.80;99.90
46652;DHT22;32377;52.182;5.398;2022-10-31T05:32:29;9.80;99.90
46652;DHT22;32377;52.182;5.398;2022-10-31T05:34:55;9.80;99.90
46652;DHT22;32377;52.182;5.398;2022-10-31T05:37:20;9.80;99.90
46652;DHT22;32377;52.182;5.398;2022-10-31T05:39:46;9.70;99.90
46652;DHT22;32377;52.182;5.398;2022-10-31T05:42:11;9.70;99.90
46652;DHT22;32377;52.182;5.398;2022-10-31T05:44:37;9.60;99.90
46652;DHT22;32377;52.182;5.398;2022-10-31T05:47:02;9.60;99.90
46652;DHT22;32377;52.182;5.398;2022-10-31T05:49:28;9.60;99.90
46652;DHT22;32377;52.182;5.398;2022-10-31T05:51:57;9.70;99.90
46652;DHT22;32377;52.182;5.398;2022-10-31T05:54:23;9.60;99.90
46652;DHT22;32377;52.182;5.398;2022-10-31T05:56:48;9.60;99.90
46652;DHT22;32377;52.182;5.398;2022-10-31T05:59:14;9.60;99.90
46652;DHT22;32377;52.182;5.398;2022-10-31T06:01:39;9.60;99.90
46652;DHT22;32377;52.182;5.398;2022-10-31T06:04:05;9.60;99.90
46652;DHT22;32377;52.182;5.398;2022-10-31T06:06:31;9.70;99.90
46652;DHT22;32377;52.182;5.398;2022-10-31T06:08:56;9.70;99.90
46652;DHT22;32377;52.182;5.398;2022-10-31T06:11:22;9.80;99.90
46652;DHT22;32377;52.182;5.398;2022-10-31T06:13:48;9.80;99.90
46652;DHT22;32377;52.182;5.398;2022-10-31T06:16:13;9.80;99.90
46652;DHT22;32377;52.182;5.398;2022-10-31T06:18:39;9.90;99.90
46652;DHT22;32377;52.182;5.398;2022-10-31T06:21:04;9.80;99.90
46652;DHT22;32377;52.182;5.398;2022-10-31T06:23:30;9.90;99.90
46652;DHT22;32377;52.182;5.398;2022-10-31T06:25:55;9.90;99.90
46652;DHT22;32377;52.182;5.398;2022-10-31T06:28:21;9.90;99.90
46652;DHT22;32377;52.182;5.398;2022-10-31T06:30:46;9.80;99.90
46652;DHT22;32377;52.182;5.398;2022-10-31T06:33:12;9.90;99.90
46652;DHT22;32377;52.182;5.398;2022-10-31T06:35:38;9.80;99.90
46652;DHT22;32377;52.182;5.398;2022-10-31T06:38:03;9.90;99.90
46652;DHT22;32377;52.182;5.398;2022-10-31T06:40:29;9.90;99.90
46652;DHT22;32377;52.182;5.398;2022-10-31T06:42:59;9.90;99.90
46652;DHT22;32377;52.182;5.398;2022-10-31T06:45:25;9.90;99.90
46652;DHT22;32377;52.182;5.398;2022-10-31T06:47:54;9.90;99.90
46652;DHT22;32377;52.182;5.398;2022-10-31T06:50:21;9.90;99.90
46652;DHT22;32377;52.182;5.398;2022-10-31T06:52:55;9.90;99.90
46652;DHT22;32377;52.182;5.398;2022-10-31T06:55:21;9.90;99.90
46652;DHT22;32377;52.182;5.398;2022-10-31T06:58:08;9.90;99.90
46652;DHT22;32377;52.182;5.398;2022-10-31T07:00:34;9.90;99.90
46652;DHT22;32377;52.182;5.398;2022-10-31T07:03:02;9.90;99.90
46652;DHT22;32377;52.182;5.398;2022-10-31T07:05:28;9.90;99.90
46652;DHT22;32377;52.182;5.398;2022-10-31T07:08:08;9.90;99.90
46652;DHT22;32377;52.182;5.398;2022-10-31T07:10:35;9.80;99.90
46652;DHT22;32377;52.182;5.398;2022-10-31T07:13:03;9.80;99.90
46652;DHT22;32377;52.182;5.398;2022-10-31T07:15:32;9.90;99.90
46652;DHT22;32377;52.182;5.398;2022-10-31T07:18:03;9.90;99.90
46652;DHT22;32377;52.182;5.398;2022-10-31T07:20:29;9.90;99.90
46652;DHT22;32377;52.182;5.398;2022-10-31T07:22:55;9.90;99.90
46652;DHT22;32377;52.182;5.398;2022-10-31T07:25:21;9.90;99.90
46652;DHT22;32377;52.182;5.398;2022-10-31T07:27:47;9.90;99.90
46652;DHT22;32377;52.182;5.398;2022-10-31T07:30:13;10.00;99.90
46652;DHT22;32377;52.182;5.398;2022-10-31T07:32:43;10.00;99.90
46652;DHT22;32377;52.182;5.398;2022-10-31T07:35:11;10.00;99.90
46652;DHT22;32377;52.182;5.398;2022-10-31T07:37:37;10.00;99.90
46652;DHT22;32377;52.182;5.398;2022-10-31T07:40:05;10.10;99.90
46652;DHT22;32377;52.182;5.398;2022-10-31T07:42:44;10.10;99.90
46652;DHT22;32377;52.182;5.398;2022-10-31T07:45:12;10.10;99.90
46652;DHT22;32377;52.182;5.398;2022-10-31T07:47:51;10.10;99.90
46652;DHT22;32377;52.182;5.398;2022-10-31T07:50:29;10.20;99.90
46652;DHT22;32377;52.182;5.398;2022-10-31T07:53:09;10.20;99.90
46652;DHT22;32377;52.182;5.398;2022-10-31T07:55:35;10.30;99.90
46652;DHT22;32377;52.182;5.398;2022-10-31T07:58:09;10.30;99.90
46652;DHT22;32377;52.182;5.398;2022-10-31T08:00:36;10.30;99.90
46652;DHT22;32377;52.182;5.398;2022-10-31T08:03:19;10.40;99.90
46652;DHT22;32377;52.182;5.398;2022-10-31T08:05:45;10.40;99.90
46652;DHT22;32377;52.182;5.398;2022-10-31T08:08:12;10.50;99.90
46652;DHT22;32377;52.182;5.398;2022-10-31T08:10:38;10.50;99.90
46652;DHT22;32377;52.182;5.398;2022-10-31T08:13:11;10.60;99.90
46652;DHT22;32377;52.182;5.398;2022-10-31T08:15:37;10.70;99.90
46652;DHT22;32377;52.182;5.398;2022-10-31T08:18:14;10.80;99.90
46652;DHT22;32377;52.182;5.398;2022-10-31T08:20:40;10.80;99.90
46652;DHT22;32377;52.182;5.398;2022-10-31T08:23:06;10.90;99.90
46652;DHT22;32377;52.182;5.398;2022-10-31T08:25:33;11.00;99.90
46652;DHT22;32377;52.182;5.398;2022-10-31T08:28:00;11.10;99.90
46652;DHT22;32377;52.182;5.398;2022-10-31T08:30:27;11.20;99.90
46652;DHT22;32377;52.182;5.398;2022-10-31T08:33:16;11.40;99.90
46652;DHT22;32377;52.182;5.398;2022-10-31T08:35:42;11.50;99.90
46652;DHT22;32377;52.182;5.398;2022-10-31T08:38:09;11.60;99.90
46652;DHT22;32377;52.182;5.398;2022-10-31T08:40:36;11.60;99.90
46652;DHT22;32377;52.182;5.398;2022-10-31T08:43:20;11.70;99.90
46652;DHT22;32377;52.182;5.398;2022-10-31T08:45:48;11.70;99.90
46652;DHT22;32377;52.182;5.398;2022-10-31T08:48:15;11.70;99.90
46652;DHT22;32377;52.182;5.398;2022-10-31T08:50:42;11.80;99.90
46652;DHT22;32377;52.182;5.398;2022-10-31T08:53:12;11.80;99.90
46652;DHT22;32377;52.182;5.398;2022-10-31T08:55:39;11.90;99.90
46652;DHT22;32377;52.182;5.398;2022-10-31T08:58:09;11.80;99.90
46652;DHT22;32377;52.182;5.398;2022-10-31T09:00:35;11.90;99.90
46652;DHT22;32377;52.182;5.398;2022-10-31T09:03:03;11.90;99.90
46652;DHT22;32377;52.182;5.398;2022-10-31T09:05:29;11.80;99.90
46652;DHT22;32377;52.182;5.398;2022-10-31T09:07:56;11.80;99.90
46652;DHT22;32377;52.182;5.398;2022-10-31T09:10:23;11.90;99.90
46652;DHT22;32377;52.182;5.398;2022-10-31T09:12:58;12.00;99.90
46652;DHT22;32377;52.182;5.398;2022-10-31T09:15:25;12.00;99.90
46652;DHT22;32377;52.182;5.398;2022-10-31T09:17:51;12.10;99.90
46652;DHT22;32377;52.182;5.398;2022-10-31T09:20:16;12.10;99.90
46652;DHT22;32377;52.182;5.398;2022-10-31T09:22:42;12.20;99.90
46652;DHT22;32377;52.182;5.398;2022-10-31T09:25:08;12.30;99.90
46652;DHT22;32377;52.182;5.398;2022-10-31T09:27:34;12.40;99.90
46652;DHT22;32377;52.182;5.398;2022-10-31T09:30:00;12.50;99.90
46652;DHT22;32377;52.182;5.398;2022-10-31T09:32:25;12.50;99.90
46652;DHT22;32377;52.182;5.398;2022-10-31T09:34:51;12.70;99.90
46652;DHT22;32377;52.182;5.398;2022-10-31T09:37:16;12.80;99.90
46652;DHT22;32377;52.182;5.398;2022-10-31T09:39:42;12.90;99.90
46652;DHT22;32377;52.182;5.398;2022-10-31T09:45:07;13.20;99.90
46652;DHT22;32377;52.182;5.398;2022-10-31T09:48:27;13.40;99.90
46652;DHT22;32377;52.182;5.398;2022-10-31T09:50:56;13.50;99.90
46652;DHT22;32377;52.182;5.398;2022-10-31T09:53:36;13.60;99.90
46652;DHT22;32377;52.182;5.398;2022-10-31T09:56:10;13.70;99.90
46652;DHT22;32377;52.182;5.398;2022-10-31T09:58:42;13.70;99.90
46652;DHT22;32377;52.182;5.398;2022-10-31T10:01:21;13.80;99.90
46652;DHT22;32377;52.182;5.398;2022-10-31T10:03:50;13.80;99.90
46652;DHT22;32377;52.182;5.398;2022-10-31T10:06:25;13.90;99.90
46652;DHT22;32377;52.182;5.398;2022-10-31T10:08:52;14.10;99.90
46652;DHT22;32377;52.182;5.398;2022-10-31T10:12:12;14.20;99.90
46652;DHT22;32377;52.182;5.398;2022-10-31T10:14:34;14.20;99.90
46652;DHT22;32377;52.182;5.398;2022-10-31T10:18:04;14.30;99.90
46652;DHT22;32377;52.182;5.398;2022-10-31T10:20:29;14.40;99.90
46652;DHT22;32377;52.182;5.398;2022-10-31T10:26:15;14.50;99.90
46652;DHT22;32377;52.182;5.398;2022-10-31T10:28:47;14.50;99.90
46652;DHT22;32377;52.182;5.398;2022-10-31T10:31:20;14.60;99.90
46652;DHT22;32377;52.182;5.398;2022-10-31T10:34:19;14.60;99.90
46652;DHT22;32377;52.182;5.398;2022-10-31T10:36:48;14.70;99.90
46652;DHT22;32377;52.182;5.398;2022-10-31T10:39:22;14.80;99.90
46652;DHT22;32377;52.182;5.398;2022-10-31T10:41:49;14.80;99.90
46652;DHT22;32377;52.182;5.398;2022-10-31T10:44:39;14.80;99.90
46652;DHT22;32377;52.182;5.398;2022-10-31T10:47:26;14.80;99.90
46652;DHT22;32377;52.182;5.398;2022-10-31T10:58:01;15.10;99.90
46652;DHT22;32377;52.182;5.398;2022-10-31T11:00:46;15.10;99.90
46652;DHT22;32377;52.182;5.398;2022-10-31T11:03:16;15.20;99.90
46652;DHT22;32377;52.182;5.398;2022-10-31T11:05:52;15.30;99.90
46652;DHT22;32377;52.182;5.398;2022-10-31T11:08:29;15.40;99.90
46652;DHT22;32377;52.182;5.398;2022-10-31T11:13:23;15.40;99.90
46652;DHT22;32377;52.182;5.398;2022-10-31T11:16:34;15.50;99.90
46652;DHT22;32377;52.182;5.398;2022-10-31T11:19:27;15.50;99.90
46652;DHT22;32377;52.182;5.398;2022-10-31T11:21:53;15.50;99.90
46652;DHT22;32377;52.182;5.398;2022-10-31T11:24:22;15.60;99.90
46652;DHT22;32377;52.182;5.398;2022-10-31T11:26:49;15.70;99.90
46652;DHT22;32377;52.182;5.398;2022-10-31T11:29:20;15.80;99.90
46652;DHT22;32377;52.182;5.398;2022-10-31T11:31:46;16.00;99.90
46652;DHT22;32377;52.182;5.398;2022-10-31T11:34:42;15.90;99.90
46652;DHT22;32377;52.182;5.398;2022-10-31T11:37:15;16.00;99.90
46652;DHT22;32377;52.182;5.398;2022-10-31T11:39:44;16.10;99.90
46652;DHT22;32377;52.182;5.398;2022-10-31T11:42:12;16.10;99.90
46652;DHT22;32377;52.182;5.398;2022-10-31T11:44:42;16.10;99.90
46652;DHT22;32377;52.182;5.398;2022-10-31T11:47:14;16.20;99.90
46652;DHT22;32377;52.182;5.398;2022-10-31T11:49:47;16.20;99.90
46652;DHT22;32377;52.182;5.398;2022-10-31T11:54:53;16.30;99.90
46652;DHT22;32377;52.182;5.398;2022-10-31T11:57:29;16.30;99.90
46652;DHT22;32377;52.182;5.398;2022-10-31T12:00:00;16.20;99.90
46652;DHT22;32377;52.182;5.398;2022-10-31T12:02:26;16.20;99.90
46652;DHT22;32377;52.182;5.398;2022-10-31T12:05:24;16.10;99.90
46652;DHT22;32377;52.182;5.398;2022-10-31T12:07:49;16.10;99.90
46652;DHT22;32377;52.182;5.398;2022-10-31T12:10:15;16.10;99.90
46652;DHT22;32377;52.182;5.398;2022-10-31T12:13:08;16.10;99.90
46652;DHT22;32377;52.182;5.398;2022-10-31T12:15:45;16.00;99.90
46652;DHT22;32377;52.182;5.398;2022-10-31T12:21:06;16.00;99.90
46652;DHT22;32377;52.182;5.398;2022-10-31T12:23:37;16.00;99.90
46652;DHT22;32377;52.182;5.398;2022-10-31T12:34:33;15.70;99.90
46652;DHT22;32377;52.182;5.398;2022-10-31T12:51:09;16.10;99.90
46652;DHT22;32377;52.182;5.398;2022-10-31T12:58:55;16.20;99.90
46652;DHT22;32377;52.182;5.398;2022-10-31T13:01:36;16.30;99.90
46652;DHT22;32377;52.182;5.398;2022-10-31T13:04:15;16.30;99.90
46652;DHT22;32377;52.182;5.398;2022-10-31T13:06:56;16.40;99.90
46652;DHT22;32377;52.182;5.398;2022-10-31T13:09:42;16.40;99.90
46652;DHT22;32377;52.182;5.398;2022-10-31T13:12:14;16.40;99.90
46652;DHT22;32377;52.182;5.398;2022-10-31T13:17:31;16.50;99.90
46652;DHT22;32377;52.182;5.398;2022-10-31T13:20:35;16.50;99.90
46652;DHT22;32377;52.182;5.398;2022-10-31T13:23:23;16.50;99.90
46652;DHT22;32377;52.182;5.398;2022-10-31T13:25:54;16.40;99.90
46652;DHT22;32377;52.182;5.398;2022-10-31T13:28:45;16.40;99.90
46652;DHT22;32377;52.182;5.398;2022-10-31T13:31:11;16.40;99.90
46652;DHT22;32377;52.182;5.398;2022-10-31T13:36:43;16.30;99.90
46652;DHT22;32377;52.182;5.398;2022-10-31T13:42:11;16.30;99.90
46652;DHT22;32377;52.182;5.398;2022-10-31T13:44:38;16.20;99.90
46652;DHT22;32377;52.182;5.398;2022-10-31T13:47:29;16.20;99.90
46652;DHT22;32377;52.182;5.398;2022-10-31T13:50:25;16.30;99.90
46652;DHT22;32377;52.182;5.398;2022-10-31T13:52:51;16.30;99.90
46652;DHT22;32377;52.182;5.398;2022-10-31T13:58:30;16.40;99.90
46652;DHT22;32377;52.182;5.398;2022-10-31T14:01:16;16.40;99.90
46652;DHT22;32377;52.182;5.398;2022-10-31T14:03:46;16.50;99.90
46652;DHT22;32377;52.182;5.398;2022-10-31T14:06:13;16.50;99.90
46652;DHT22;32377;52.182;5.398;2022-10-31T14:08:49;16.50;99.90
46652;DHT22;32377;52.182;5.398;2022-10-31T14:11:24;16.50;99.90
46652;DHT22;32377;52.182;5.398;2022-10-31T14:13:53;16.50;99.90
46652;DHT22;32377;52.182;5.398;2022-10-31T14:16:30;16.50;99.90
46652;DHT22;32377;52.182;5.398;2022-10-31T14:21:29;16.40;99.90
46652;DHT22;32377;52.182;5.398;2022-10-31T14:23:56;16.40;99.90
46652;DHT22;32377;52.182;5.398;2022-10-31T14:28:59;16.40;99.90
46652;DHT22;32377;52.182;5.398;2022-10-31T14:34:38;16.40;99.90
46652;DHT22;32377;52.182;5.398;2022-10-31T14:46:00;16.30;99.90
46652;DHT22;32377;52.182;5.398;2022-10-31T14:48:53;16.30;99.90
46652;DHT22;32377;52.182;5.398;2022-10-31T14:51:41;16.30;99.90
46652;DHT22;32377;52.182;5.398;2022-10-31T14:54:14;16.30;99.90
46652;DHT22;32377;52.182;5.398;2022-10-31T14:56:48;16.20;99.90
46652;DHT22;32377;52.182;5.398;2022-10-31T14:59:18;16.30;99.90
46652;DHT22;32377;52.182;5.398;2022-10-31T15:02:09;16.20;99.90
46652;DHT22;32377;52.182;5.398;2022-10-31T15:04:37;16.20;99.90
46652;DHT22;32377;52.182;5.398;2022-10-31T15:07:19;16.20;99.90
46652;DHT22;32377;52.182;5.398;2022-10-31T15:09:58;16.20;99.90
46652;DHT22;32377;52.182;5.398;2022-10-31T15:12:32;16.20;99.90
46652;DHT22;32377;52.182;5.398;2022-10-31T15:15:11;16.10;99.90
46652;DHT22;32377;52.182;5.398;2022-10-31T15:17:45;16.10;99.90
46652;DHT22;32377;52.182;5.398;2022-10-31T15:20:19;16.10;99.90
46652;DHT22;32377;52.182;5.398;2022-10-31T15:22:46;16.00;99.90
46652;DHT22;32377;52.182;5.398;2022-10-31T15:25:23;16.00;99.90
46652;DHT22;32377;52.182;5.398;2022-10-31T15:27:50;16.00;99.90
46652;DHT22;32377;52.182;5.398;2022-10-31T15:30:25;15.90;99.90
46652;DHT22;32377;52.182;5.398;2022-10-31T15:32:51;15.90;99.90
46652;DHT22;32377;52.182;5.398;2022-10-31T15:35:29;15.90;99.90
46652;DHT22;32377;52.182;5.398;2022-10-31T15:37:56;15.90;99.90
46652;DHT22;32377;52.182;5.398;2022-10-31T15:40:24;15.80;99.90
46652;DHT22;32377;52.182;5.398;2022-10-31T15:42:55;15.80;99.90
46652;DHT22;32377;52.182;5.398;2022-10-31T15:45:23;15.80;99.90
46652;DHT22;32377;52.182;5.398;2022-10-31T15:48:13;15.70;99.90
46652;DHT22;32377;52.182;5.398;2022-10-31T15:50:48;15.70;99.90
46652;DHT22;32377;52.182;5.398;2022-10-31T15:53:18;15.70;99.90
46652;DHT22;32377;52.182;5.398;2022-10-31T15:55:53;15.60;99.90
46652;DHT22;32377;52.182;5.398;2022-10-31T15:58:19;15.60;99.90
46652;DHT22;32377;52.182;5.398;2022-10-31T16:00:59;15.60;99.90
46652;DHT22;32377;52.182;5.398;2022-10-31T16:03:28;15.60;99.90
46652;DHT22;32377;52.182;5.398;2022-10-31T16:06:02;15.60;99.90
46652;DHT22;32377;52.182;5.398;2022-10-31T16:11:16;15.50;99.90
46652;DHT22;32377;52.182;5.398;2022-10-31T16:14:01;15.50;99.90
46652;DHT22;32377;52.182;5.398;2022-10-31T16:16:28;15.40;99.90
46652;DHT22;32377;52.182;5.398;2022-10-31T16:18:55;15.40;99.90
46652;DHT22;32377;52.182;5.398;2022-10-31T16:21:31;15.40;99.90
46652;DHT22;32377;52.182;5.398;2022-10-31T16:24:03;15.40;99.90
46652;DHT22;32377;52.182;5.398;2022-10-31T16:26:30;15.40;99.90
46652;DHT22;32377;52.182;5.398;2022-10-31T16:28:58;15.30;99.90
46652;DHT22;32377;52.182;5.398;2022-10-31T16:31:29;15.30;99.90
46652;DHT22;32377;52.182;5.398;2022-10-31T16:34:17;15.30;99.90
46652;DHT22;32377;52.182;5.398;2022-10-31T16:36:43;15.30;99.90
46652;DHT22;32377;52.182;5.398;2022-10-31T16:39:09;15.30;99.90
46652;DHT22;32377;52.182;5.398;2022-10-31T16:41:38;15.30;99.90
46652;DHT22;32377;52.182;5.398;2022-10-31T16:44:11;15.20;99.90
46652;DHT22;32377;52.182;5.398;2022-10-31T16:46:39;15.20;99.90
46652;DHT22;32377;52.182;5.398;2022-10-31T16:49:07;15.10;99.90
46652;DHT22;32377;52.182;5.398;2022-10-31T16:51:33;15.00;99.90
46652;DHT22;32377;52.182;5.398;2022-10-31T16:53:58;15.00;99.90
46652;DHT22;32377;52.182;5.398;2022-10-31T16:56:28;14.90;99.90
46652;DHT22;32377;52.182;5.398;2022-10-31T16:58:54;14.80;99.90
46652;DHT22;32377;52.182;5.398;2022-10-31T17:01:20;14.80;99.90
46652;DHT22;32377;52.182;5.398;2022-10-31T17:03:46;14.70;99.90
46652;DHT22;32377;52.182;5.398;2022-10-31T17:06:12;14.70;99.90
46652;DHT22;32377;52.182;5.398;2022-10-31T17:08:38;14.70;99.90
46652;DHT22;32377;52.182;5.398;2022-10-31T17:11:04;14.70;99.90
46652;DHT22;32377;52.182;5.398;2022-10-31T17:13:31;14.70;99.90
46652;DHT22;32377;52.182;5.398;2022-10-31T17:15:59;14.70;99.90
46652;DHT22;32377;52.182;5.398;2022-10-31T17:18:26;14.70;99.90
46652;DHT22;32377;52.182;5.398;2022-10-31T17:20:56;14.70;99.90
46652;DHT22;32377;52.182;5.398;2022-10-31T17:23:24;14.70;99.90
46652;DHT22;32377;52.182;5.398;2022-10-31T17:25:50;14.70;99.90
46652;DHT22;32377;52.182;5.398;2022-10-31T17:28:15;14.70;99.90
46652;DHT22;32377;52.182;5.398;2022-10-31T17:30:41;14.70;99.90
46652;DHT22;32377;52.182;5.398;2022-10-31T17:33:15;14.60;99.90
46652;DHT22;32377;52.182;5.398;2022-10-31T17:35:42;14.60;99.90
46652;DHT22;32377;52.182;5.398;2022-10-31T17:38:09;14.60;99.90
46652;DHT22;32377;52.182;5.398;2022-10-31T17:40:37;14.50;99.90
46652;DHT22;32377;52.182;5.398;2022-10-31T17:43:03;14.50;99.90
46652;DHT22;32377;52.182;5.398;2022-10-31T17:45:29;14.50;99.90